createdAt,value
2022-09-28T00:01:04.557Z,22.19
2022-09-28T00:03:30.958Z,22.17
2022-09-28T00:05:57.348Z,22.16
2022-09-28T00:08:23.731Z,22.14
2022-09-28T00:10:50.139Z,22.15
2022-09-28T00:13:16.535Z,22.17
2022-09-28T00:15:42.937Z,22.14
2022-09-28T00:18:09.353Z,22.15
2022-09-28T00:20:35.736Z,22.15
2022-09-28T00:23:02.204Z,22.16
2022-09-28T00:25:28.636Z,22.14
2022-09-28T00:27:55.042Z,22.13
2022-09-28T00:30:21.419Z,22.10
2022-09-28T00:32:47.852Z,22.10
2022-09-28T00:35:14.235Z,22.11
2022-09-28T00:37:40.711Z,22.10
2022-09-28T00:40:07.108Z,22.12
2022-09-28T00:42:33.487Z,22.10
2022-09-28T00:44:59.887Z,22.12
2022-09-28T00:47:26.277Z,22.11
2022-09-28T00:49:52.659Z,22.09
2022-09-28T00:52:19.158Z,22.11
2022-09-28T00:54:45.583Z,22.11
2022-09-28T00:57:12.052Z,22.11
2022-09-28T00:59:38.474Z,22.10
2022-09-28T01:02:04.950Z,22.10
2022-09-28T01:04:31.480Z,22.12
2022-09-28T01:06:57.875Z,22.11
2022-09-28T01:09:24.323Z,22.11
2022-09-28T01:11:50.708Z,22.09
2022-09-28T01:14:17.091Z,22.12
2022-09-28T01:16:43.543Z,22.09
2022-09-28T01:19:10.017Z,22.11
2022-09-28T01:21:36.440Z,22.11
2022-09-28T01:24:02.850Z,22.09
2022-09-28T01:26:29.328Z,22.10
2022-09-28T01:28:55.774Z,22.10
2022-09-28T01:31:22.228Z,22.11
2022-09-28T01:33:48.730Z,22.13
2022-09-28T01:36:15.150Z,22.08
2022-09-28T01:38:41.542Z,22.08
2022-09-28T01:41:07.929Z,22.08
2022-09-28T01:43:34.325Z,22.06
2022-09-28T01:46:00.746Z,22.08
2022-09-28T01:48:27.173Z,22.07
2022-09-28T01:50:53.569Z,22.07
2022-09-28T01:53:19.953Z,22.06
2022-09-28T01:55:46.338Z,22.07
2022-09-28T01:58:12.726Z,22.06
2022-09-28T02:00:39.193Z,22.07
2022-09-28T02:03:05.598Z,22.05
2022-09-28T02:05:32.052Z,22.07
2022-09-28T02:07:58.451Z,22.02
2022-09-28T02:10:24.837Z,22.04
2022-09-28T02:12:51.233Z,22.04
2022-09-28T02:15:17.607Z,22.03
2022-09-28T02:17:44.005Z,22.02
2022-09-28T02:20:10.385Z,22.04
2022-09-28T02:22:36.763Z,22.05
2022-09-28T02:25:03.158Z,22.02
2022-09-28T02:27:29.536Z,21.98
2022-09-28T02:29:55.941Z,22.01
2022-09-28T02:32:22.319Z,22.03
2022-09-28T02:34:48.713Z,22.04
2022-09-28T02:37:15.118Z,22.05
2022-09-28T02:39:41.569Z,22.02
2022-09-28T02:42:07.961Z,22.02
2022-09-28T02:44:34.340Z,22.02
2022-09-28T02:47:00.776Z,22.03
2022-09-28T02:49:27.154Z,22.02
2022-09-28T02:51:53.539Z,22.00
2022-09-28T02:54:19.931Z,22.01
2022-09-28T02:56:46.320Z,21.99
2022-09-28T02:59:12.913Z,22.01
2022-09-28T03:01:39.492Z,22.01
2022-09-28T03:04:05.889Z,22.01
2022-09-28T03:06:32.279Z,21.99
2022-09-28T03:08:58.664Z,21.98
2022-09-28T03:11:25.064Z,21.99
2022-09-28T03:13:51.444Z,21.97
2022-09-28T03:16:17.878Z,21.98
2022-09-28T03:18:44.318Z,21.97
2022-09-28T03:21:10.726Z,21.97
2022-09-28T03:23:37.128Z,21.97
2022-09-28T03:26:03.547Z,22.00
2022-09-28T03:28:29.958Z,21.97
2022-09-28T03:30:56.424Z,21.96
2022-09-28T03:33:22.874Z,21.96
2022-09-28T03:35:49.255Z,21.98
2022-09-28T03:38:15.648Z,21.97
2022-09-28T03:40:42.093Z,21.96
2022-09-28T03:43:08.510Z,21.93
2022-09-28T03:45:34.921Z,21.93
2022-09-28T03:48:01.356Z,21.96
2022-09-28T03:50:27.792Z,21.96
2022-09-28T03:52:54.165Z,21.94
2022-09-28T03:55:20.560Z,21.95
2022-09-28T03:57:46.951Z,21.95
2022-09-28T04:00:13.369Z,21.92
2022-09-28T04:02:39.835Z,21.94
2022-09-28T04:05:06.327Z,21.92
2022-09-28T04:07:32.701Z,21.94
2022-09-28T04:09:59.083Z,21.95
2022-09-28T04:12:25.488Z,21.95
2022-09-28T04:14:51.884Z,21.93
2022-09-28T04:17:18.283Z,21.93
2022-09-28T04:19:44.666Z,21.89
2022-09-28T04:22:11.072Z,21.93
2022-09-28T04:24:37.458Z,21.94
2022-09-28T04:27:03.884Z,21.92
2022-09-28T04:29:30.281Z,21.92
2022-09-28T04:31:56.708Z,21.94
2022-09-28T04:34:23.175Z,21.88
2022-09-28T04:36:49.561Z,21.89
2022-09-28T04:39:15.933Z,21.90
2022-09-28T04:41:42.310Z,21.90
2022-09-28T04:44:08.687Z,21.87
2022-09-28T04:46:35.149Z,21.89
2022-09-28T04:49:01.554Z,21.87
2022-09-28T04:51:27.922Z,21.88
2022-09-28T04:53:54.289Z,21.88
2022-09-28T04:56:20.697Z,21.89
2022-09-28T04:58:52.439Z,21.89
2022-09-28T05:01:19.293Z,21.91
2022-09-28T05:03:45.706Z,21.89
2022-09-28T05:06:12.178Z,21.89
2022-09-28T05:08:38.532Z,21.89
2022-09-28T05:11:04.894Z,21.91
2022-09-28T05:13:31.269Z,21.94
2022-09-28T05:16:01.763Z,21.90
2022-09-28T05:18:30.862Z,21.87
2022-09-28T05:20:57.229Z,21.89
2022-09-28T05:23:23.596Z,21.97
2022-09-28T05:25:49.959Z,21.95
2022-09-28T05:28:16.338Z,21.95
2022-09-28T05:30:42.711Z,21.94
2022-09-28T05:33:09.090Z,21.96
2022-09-28T05:35:35.443Z,21.97
2022-09-28T05:38:01.820Z,22.00
2022-09-28T05:40:28.251Z,21.94
2022-09-28T05:42:54.704Z,21.97
2022-09-28T05:45:21.087Z,21.96
2022-09-28T05:47:47.458Z,21.97
2022-09-28T05:50:13.824Z,21.94
2022-09-28T05:52:40.197Z,21.94
2022-09-28T05:55:06.558Z,21.93
2022-09-28T05:57:32.938Z,21.93
2022-09-28T05:59:59.302Z,21.97
2022-09-28T06:02:25.700Z,22.00
2022-09-28T06:04:52.200Z,21.91
2022-09-28T06:07:18.569Z,21.80
2022-09-28T06:09:44.961Z,21.85
2022-09-28T06:12:11.430Z,21.90
2022-09-28T06:14:37.798Z,21.89
2022-09-28T06:17:04.244Z,21.92
2022-09-28T06:19:30.697Z,21.93
2022-09-28T06:21:59.279Z,21.93
2022-09-28T06:24:25.848Z,21.93
2022-09-28T06:26:52.216Z,21.93
2022-09-28T06:29:19.667Z,21.89
2022-09-28T06:31:46.298Z,21.92
2022-09-28T06:34:12.671Z,21.96
2022-09-28T06:36:39.057Z,21.91
2022-09-28T06:39:05.435Z,21.90
2022-09-28T06:41:31.798Z,21.92
2022-09-28T06:43:58.216Z,21.94
2022-09-28T06:46:24.612Z,21.93
2022-09-28T06:48:51.023Z,21.90
2022-09-28T06:51:17.382Z,21.91
2022-09-28T06:53:43.744Z,21.91
2022-09-28T06:56:10.100Z,21.93
2022-09-28T06:58:36.462Z,21.91
2022-09-28T07:01:02.843Z,21.87
2022-09-28T07:03:29.234Z,21.92
2022-09-28T07:05:55.607Z,21.94
2022-09-28T07:08:21.975Z,21.88
2022-09-28T07:10:48.354Z,21.92
2022-09-28T07:13:41.688Z,21.93
2022-09-28T07:16:01.072Z,21.91
2022-09-28T07:18:27.483Z,21.91
2022-09-28T07:20:54.774Z,21.95
2022-09-28T07:23:21.189Z,21.94
2022-09-28T07:25:47.553Z,21.94
2022-09-28T07:28:13.926Z,21.92
2022-09-28T07:30:40.337Z,21.93
2022-09-28T07:33:06.727Z,21.93
2022-09-28T07:35:33.087Z,21.97
2022-09-28T07:37:59.447Z,21.94
2022-09-28T07:40:25.888Z,21.94
2022-09-28T07:42:52.317Z,21.89
2022-09-28T07:45:18.687Z,21.90
2022-09-28T07:47:45.042Z,21.93
2022-09-28T07:50:11.450Z,21.92
2022-09-28T07:52:37.853Z,21.92
2022-09-28T07:55:07.063Z,21.92
2022-09-28T07:57:33.869Z,21.91
2022-09-28T08:00:00.230Z,21.92
2022-09-28T08:02:26.646Z,21.91
2022-09-28T08:04:53.325Z,21.93
2022-09-28T08:07:23.727Z,21.95
2022-09-28T08:09:50.530Z,21.92
2022-09-28T08:12:16.895Z,21.95
2022-09-28T08:14:43.308Z,21.93
2022-09-28T08:17:09.764Z,21.90
2022-09-28T08:19:36.128Z,21.92
2022-09-28T08:22:02.506Z,21.92
2022-09-28T08:24:28.868Z,21.93
2022-09-28T08:26:55.250Z,21.93
2022-09-28T08:29:21.606Z,21.93
2022-09-28T08:31:47.994Z,21.97
2022-09-28T08:34:14.425Z,21.95
2022-09-28T08:36:40.844Z,21.97
2022-09-28T08:39:07.217Z,21.95
2022-09-28T08:41:33.572Z,21.98
2022-09-28T08:43:59.933Z,21.95
2022-09-28T08:46:27.224Z,21.96
2022-09-28T08:49:13.299Z,21.95
2022-09-28T08:51:40.104Z,21.96
2022-09-28T08:54:09.474Z,21.97
2022-09-28T08:56:38.268Z,21.98
2022-09-28T08:59:04.619Z,22.00
2022-09-28T09:01:31.080Z,21.99
2022-09-28T09:03:57.494Z,21.96
2022-09-28T09:06:23.861Z,21.95
2022-09-28T09:08:50.237Z,21.98
2022-09-28T09:11:16.592Z,21.97
2022-09-28T09:13:42.966Z,22.02
2022-09-28T09:16:09.324Z,21.99
2022-09-28T09:18:35.688Z,21.99
2022-09-28T09:21:02.051Z,21.99
2022-09-28T09:23:28.513Z,21.98
2022-09-28T09:25:54.873Z,21.98
2022-09-28T09:28:21.223Z,21.99
2022-09-28T09:30:47.672Z,22.00
2022-09-28T09:33:14.079Z,21.99
2022-09-28T09:35:40.433Z,21.99
2022-09-28T09:38:06.793Z,21.98
2022-09-28T09:40:33.184Z,21.96
2022-09-28T09:42:59.584Z,22.01
2022-09-28T09:45:25.949Z,21.99
2022-09-28T09:47:52.322Z,22.01
2022-09-28T09:50:18.727Z,22.02
2022-09-28T09:52:45.158Z,22.04
2022-09-28T09:55:11.533Z,22.04
2022-09-28T09:57:37.905Z,22.02
2022-09-28T10:00:04.267Z,22.01
2022-09-28T10:02:30.712Z,22.02
2022-09-28T10:04:57.130Z,22.01
2022-09-28T10:07:23.504Z,22.03
2022-09-28T10:09:49.876Z,22.04
2022-09-28T10:12:16.260Z,22.03
2022-09-28T10:14:42.650Z,22.02
2022-09-28T10:17:09.068Z,22.04
2022-09-28T10:19:35.459Z,22.04
2022-09-28T10:22:01.857Z,22.03
2022-09-28T10:24:28.219Z,22.03
2022-09-28T10:26:54.584Z,22.06
2022-09-28T10:29:20.965Z,22.01
2022-09-28T10:31:47.361Z,22.04
2022-09-28T10:34:13.750Z,22.02
2022-09-28T10:36:40.157Z,22.03
2022-09-28T10:39:06.543Z,22.01
2022-09-28T10:41:32.927Z,21.99
2022-09-28T10:43:59.301Z,21.95
2022-09-28T10:46:25.764Z,21.94
2022-09-28T10:48:52.185Z,21.92
2022-09-28T10:51:18.556Z,21.98
2022-09-28T10:53:44.928Z,22.00
2022-09-28T10:56:11.296Z,21.99
2022-09-28T10:58:37.665Z,22.03
2022-09-28T11:01:04.107Z,22.06
2022-09-28T11:03:30.523Z,22.06
2022-09-28T11:05:56.888Z,22.08
2022-09-28T11:08:23.257Z,22.10
2022-09-28T11:10:49.627Z,22.09
2022-09-28T11:13:16.000Z,22.08
2022-09-28T11:15:42.375Z,22.09
2022-09-28T11:18:08.758Z,22.09
2022-09-28T11:20:35.139Z,22.10
2022-09-28T11:23:01.530Z,22.10
2022-09-28T11:25:27.902Z,22.11
2022-09-28T11:27:54.275Z,22.09
2022-09-28T11:30:20.694Z,22.10
2022-09-28T11:32:47.081Z,22.10
2022-09-28T11:35:13.458Z,22.08
2022-09-28T11:37:39.837Z,22.08
2022-09-28T11:40:06.265Z,22.08
2022-09-28T11:42:32.651Z,22.08
2022-09-28T11:44:59.022Z,22.05
2022-09-28T11:47:25.409Z,22.09
2022-09-28T11:49:51.776Z,22.08
2022-09-28T11:52:18.155Z,22.06
2022-09-28T11:54:44.520Z,22.10
2022-09-28T11:57:10.904Z,22.09
2022-09-28T11:59:37.279Z,22.09
2022-09-28T12:02:03.707Z,22.08
2022-09-28T12:04:30.197Z,22.06
2022-09-28T12:06:56.560Z,22.08
2022-09-28T12:09:22.949Z,22.10
2022-09-28T12:11:49.317Z,22.10
2022-09-28T12:14:15.690Z,22.11
2022-09-28T12:19:28.420Z,22.11
2022-09-28T12:21:54.799Z,22.12
2022-09-28T12:24:21.178Z,22.15
2022-09-28T12:26:47.551Z,22.13
2022-09-28T12:29:13.954Z,22.14
2022-09-28T12:31:40.328Z,22.12
2022-09-28T12:34:06.696Z,22.10
2022-09-28T12:36:33.178Z,22.11
2022-09-28T12:39:21.756Z,22.10
2022-09-28T12:41:45.927Z,22.09
2022-09-28T12:44:12.301Z,22.11
2022-09-28T12:46:38.745Z,22.14
2022-09-28T12:49:51.475Z,22.10
2022-09-28T12:51:51.477Z,22.13
2022-09-28T12:54:17.946Z,22.13
2022-09-28T12:56:44.400Z,22.09
2022-09-28T12:59:10.794Z,22.09
2022-09-28T13:01:37.241Z,22.09
2022-09-28T13:04:03.633Z,22.08
2022-09-28T13:06:30.014Z,22.10
2022-09-28T13:08:56.383Z,22.11
2022-09-28T13:11:22.768Z,22.08
2022-09-28T13:13:49.137Z,22.07
2022-09-28T13:16:15.597Z,22.11
2022-09-28T13:18:42.013Z,22.08
2022-09-28T13:21:08.382Z,22.09
2022-09-28T13:23:34.762Z,22.10
2022-09-28T13:26:01.123Z,22.09
2022-09-28T13:28:27.556Z,22.08
2022-09-28T13:30:53.999Z,22.12
2022-09-28T13:33:20.416Z,22.12
2022-09-28T13:35:46.781Z,22.15
2022-09-28T13:38:13.144Z,22.15
2022-09-28T13:40:39.568Z,22.15
2022-09-28T13:43:06.024Z,22.16
2022-09-28T13:45:32.399Z,22.14
2022-09-28T13:47:58.773Z,22.15
2022-09-28T13:50:25.153Z,22.12
2022-09-28T13:52:51.672Z,22.12
2022-09-28T13:55:18.057Z,22.12
2022-09-28T13:57:44.451Z,22.13
2022-09-28T14:00:10.901Z,22.11
2022-09-28T14:02:37.373Z,22.12
2022-09-28T14:05:03.787Z,22.11
2022-09-28T14:07:30.186Z,22.13
2022-09-28T14:09:56.567Z,22.13
2022-09-28T14:12:22.949Z,22.12
2022-09-28T14:14:49.323Z,22.15
2022-09-28T14:17:15.714Z,22.12
2022-09-28T14:19:42.098Z,22.14
2022-09-28T14:22:08.470Z,22.13
2022-09-28T14:24:34.852Z,22.11
2022-09-28T14:27:01.230Z,22.15
2022-09-28T14:29:27.611Z,22.12
2022-09-28T14:31:53.996Z,22.11
2022-09-28T14:34:20.375Z,22.11
2022-09-28T14:36:46.756Z,22.14
2022-09-28T14:39:13.140Z,22.15
2022-09-28T14:41:39.508Z,22.15
2022-09-28T14:44:05.887Z,22.16
2022-09-28T14:46:32.318Z,22.14
2022-09-28T14:48:58.735Z,22.15
2022-09-28T14:51:25.130Z,22.17
2022-09-28T14:53:51.503Z,22.17
2022-09-28T14:56:17.869Z,22.15
2022-09-28T14:58:47.016Z,22.14
2022-09-28T15:01:13.376Z,22.14
2022-09-28T15:03:39.747Z,22.16
2022-09-28T15:06:06.121Z,22.17
2022-09-28T15:08:32.505Z,22.16
2022-09-28T15:10:58.888Z,22.18
2022-09-28T15:13:25.266Z,22.17
2022-09-28T15:15:51.673Z,22.15
2022-09-28T15:18:18.124Z,22.14
2022-09-28T15:20:44.514Z,22.14
2022-09-28T15:23:10.892Z,22.14
2022-09-28T15:25:37.266Z,22.15
2022-09-28T15:28:03.665Z,22.17
2022-09-28T15:30:30.032Z,22.14
2022-09-28T15:32:56.413Z,22.12
2022-09-28T15:35:22.786Z,22.11
2022-09-28T15:37:49.159Z,22.11
2022-09-28T15:40:15.568Z,22.16
2022-09-28T15:42:41.941Z,21.65
2022-09-28T15:45:08.301Z,21.47
2022-09-28T15:47:34.855Z,21.74
2022-09-28T15:50:01.242Z,21.83
2022-09-28T15:52:27.619Z,21.91
2022-09-28T15:54:53.986Z,21.98
2022-09-28T15:57:20.368Z,21.99
2022-09-28T15:59:46.727Z,21.97
2022-09-28T16:02:13.199Z,21.96
2022-09-28T16:04:39.660Z,21.99
2022-09-28T16:07:06.038Z,22.04
2022-09-28T16:09:36.056Z,22.03
2022-09-28T16:12:05.268Z,22.04
2022-09-28T16:14:31.663Z,22.02
2022-09-28T16:17:01.070Z,22.05
2022-09-28T16:19:27.457Z,22.04
2022-09-28T16:21:53.824Z,22.06
2022-09-28T16:24:20.188Z,22.05
2022-09-28T16:26:46.568Z,22.07
2022-09-28T16:29:12.936Z,22.06
2022-09-28T16:31:39.311Z,22.04
2022-09-28T16:34:08.499Z,22.04
2022-09-28T16:36:37.721Z,22.05
2022-09-28T16:39:04.097Z,21.99
2022-09-28T16:41:30.474Z,22.03
2022-09-28T16:43:56.936Z,22.05
2022-09-28T16:46:23.384Z,22.04
2022-09-28T16:48:49.815Z,22.04
2022-09-28T16:51:16.193Z,22.05
2022-09-28T16:53:42.569Z,22.03
2022-09-28T16:56:09.016Z,22.05
2022-09-28T16:58:35.390Z,21.89
2022-09-28T17:01:01.770Z,21.76
2022-09-28T17:03:28.213Z,21.70
2022-09-28T17:05:54.651Z,21.92
2022-09-28T17:08:21.058Z,22.01
2022-09-28T17:11:09.715Z,22.06
2022-09-28T17:13:33.823Z,22.09
2022-09-28T17:16:00.254Z,22.06
2022-09-28T17:18:26.639Z,22.09
2022-09-28T17:20:53.014Z,22.13
2022-09-28T17:26:05.691Z,22.20
2022-09-28T17:28:32.079Z,22.22
2022-09-28T17:30:58.537Z,22.28
2022-09-28T17:33:24.983Z,22.34
2022-09-28T17:35:51.399Z,22.37
2022-09-28T17:38:17.788Z,22.35
2022-09-28T17:40:44.179Z,22.38
2022-09-28T17:43:10.570Z,22.37
2022-09-28T17:45:36.939Z,22.38
2022-09-28T17:48:03.451Z,22.37
2022-09-28T17:50:29.845Z,22.40
2022-09-28T17:52:56.210Z,22.39
2022-09-28T17:55:22.576Z,22.39
2022-09-28T17:57:48.966Z,22.39
2022-09-28T18:00:15.339Z,22.38
2022-09-28T18:02:41.839Z,22.39
2022-09-28T18:05:08.244Z,22.33
2022-09-28T18:07:34.616Z,22.30
2022-09-28T18:10:01.002Z,22.32
2022-09-28T18:12:27.386Z,22.32
2022-09-28T18:14:53.796Z,22.30
2022-09-28T18:17:20.179Z,22.28
2022-09-28T18:19:46.564Z,22.23
2022-09-28T18:22:12.945Z,22.24
2022-09-28T18:24:39.313Z,22.21
2022-09-28T18:27:05.723Z,22.17
2022-09-28T18:29:33.445Z,22.17
2022-09-28T18:31:59.988Z,22.18
2022-09-28T18:34:26.363Z,22.19
2022-09-28T18:36:52.757Z,22.21
2022-09-28T18:39:19.211Z,22.26
2022-09-28T18:41:45.676Z,22.21
2022-09-28T18:44:12.145Z,22.26
2022-09-28T18:46:38.616Z,22.20
2022-09-28T18:49:05.032Z,22.16
2022-09-28T18:51:31.404Z,22.16
2022-09-28T18:53:57.780Z,22.18
2022-09-28T18:56:24.163Z,22.17
2022-09-28T18:58:50.639Z,22.22
2022-09-28T19:01:32.661Z,22.19
2022-09-28T19:03:59.261Z,22.21
2022-09-28T19:06:25.635Z,22.25
2022-09-28T19:08:52.175Z,22.20
2022-09-28T19:11:18.566Z,22.21
2022-09-28T19:13:44.946Z,22.19
2022-09-28T19:16:11.398Z,22.23
2022-09-28T19:18:37.821Z,22.16
2022-09-28T19:21:04.210Z,22.17
2022-09-28T19:23:30.598Z,22.19
2022-09-28T19:25:56.975Z,22.21
2022-09-28T19:28:23.355Z,22.21
2022-09-28T19:30:49.888Z,22.22
2022-09-28T19:33:16.353Z,22.25
2022-09-28T19:35:42.725Z,22.30
2022-09-28T19:38:09.105Z,22.30
2022-09-28T19:40:35.580Z,22.28
2022-09-28T19:43:01.998Z,22.26
2022-09-28T19:45:28.373Z,22.27
2022-09-28T19:47:59.241Z,22.32
2022-09-28T19:50:25.823Z,22.26
2022-09-28T19:52:52.193Z,22.22
2022-09-28T19:55:18.560Z,22.25
2022-09-28T19:57:44.923Z,22.20
2022-09-28T20:00:11.309Z,22.16
2022-09-28T20:02:37.725Z,22.14
2022-09-28T20:05:04.174Z,22.13
2022-09-28T20:07:30.640Z,22.10
2022-09-28T20:09:57.009Z,22.07
2022-09-28T20:12:23.382Z,22.09
2022-09-28T20:14:49.751Z,22.08
2022-09-28T20:17:16.117Z,22.15
2022-09-28T20:19:42.490Z,22.12
2022-09-28T20:22:08.857Z,22.16
2022-09-28T20:24:35.254Z,22.17
2022-09-28T20:27:01.838Z,22.16
2022-09-28T20:29:28.310Z,22.18
2022-09-28T20:31:54.685Z,22.17
2022-09-28T20:34:21.079Z,22.12
2022-09-28T20:36:47.453Z,22.09
2022-09-28T20:39:13.827Z,22.04
2022-09-28T20:41:40.211Z,22.07
2022-09-28T20:44:06.863Z,22.08
2022-09-28T20:46:33.353Z,22.09
2022-09-28T20:48:59.816Z,22.06
2022-09-28T20:51:26.206Z,22.06
2022-09-28T20:53:52.595Z,22.05
2022-09-28T20:56:18.963Z,22.07
2022-09-28T20:58:45.346Z,22.14
2022-09-28T21:01:11.739Z,22.11
2022-09-28T21:03:38.132Z,22.16
2022-09-28T21:06:07.606Z,22.15
2022-09-28T21:08:36.472Z,22.38
2022-09-28T21:11:03.031Z,22.64
2022-09-28T21:13:29.407Z,22.66
2022-09-28T21:15:55.810Z,22.76
2022-09-28T21:18:22.244Z,22.77
2022-09-28T21:20:48.630Z,22.48
2022-09-28T21:23:15.009Z,22.28
2022-09-28T21:25:41.401Z,22.20
2022-09-28T21:28:07.770Z,22.17
2022-09-28T21:30:34.147Z,22.54
2022-09-28T21:33:00.538Z,22.69
2022-09-28T21:35:26.901Z,22.71
2022-09-28T21:37:53.269Z,22.72
2022-09-28T21:40:19.728Z,22.73
2022-09-28T21:42:46.133Z,22.76
2022-09-28T21:45:12.504Z,22.79
2022-09-28T21:47:38.876Z,22.80
2022-09-28T21:50:05.254Z,22.79
2022-09-28T21:52:31.626Z,22.80
2022-09-28T21:54:58.010Z,22.77
2022-09-28T21:57:24.376Z,22.81
2022-09-28T21:59:50.732Z,22.80
2022-09-28T22:02:17.175Z,22.73
2022-09-28T22:04:43.586Z,22.68
2022-09-28T22:07:09.966Z,22.62
2022-09-28T22:09:36.345Z,22.52
2022-09-28T22:12:02.706Z,22.65
2022-09-28T22:14:29.084Z,22.60
2022-09-28T22:16:55.457Z,22.50
2022-09-28T22:19:21.822Z,22.44
2022-09-28T22:21:48.213Z,22.38
2022-09-28T22:24:14.607Z,22.35
2022-09-28T22:26:41.046Z,22.31
2022-09-28T22:29:07.426Z,22.27
2022-09-28T22:31:33.837Z,22.27
2022-09-28T22:34:00.216Z,22.27
2022-09-28T22:36:26.597Z,22.25
2022-09-28T22:38:52.965Z,22.26
2022-09-28T22:41:19.345Z,22.26
2022-09-28T22:43:45.724Z,22.19
2022-09-28T22:46:12.126Z,22.21
2022-09-28T22:48:38.535Z,22.22
2022-09-28T22:51:04.891Z,22.19
2022-09-28T22:53:31.262Z,22.21
2022-09-28T22:55:57.627Z,22.15
2022-09-28T22:58:23.982Z,22.20
2022-09-28T23:00:50.370Z,22.16
2022-09-28T23:03:16.843Z,22.15
2022-09-28T23:05:43.243Z,22.17
2022-09-28T23:08:09.605Z,22.16
2022-09-28T23:10:35.976Z,22.16
2022-09-28T23:13:02.343Z,22.15
2022-09-28T23:15:28.726Z,22.16
2022-09-28T23:17:55.088Z,22.16
2022-09-28T23:20:21.448Z,22.12
2022-09-28T23:22:47.826Z,22.10
2022-09-28T23:25:14.191Z,22.14
2022-09-28T23:27:40.559Z,22.15
2022-09-28T23:30:06.925Z,22.13
2022-09-28T23:32:33.284Z,22.11
2022-09-28T23:34:59.638Z,22.10
2022-09-28T23:37:26.012Z,22.10
2022-09-28T23:39:52.384Z,22.12
2022-09-28T23:42:18.750Z,22.11
2022-09-28T23:44:45.124Z,22.10
2022-09-28T23:47:11.480Z,22.09
2022-09-28T23:49:37.836Z,22.10
2022-09-28T23:52:04.209Z,22.10
2022-09-28T23:54:30.572Z,22.09
2022-09-28T23:56:56.928Z,22.10
2022-09-28T23:59:23.292Z,22.08
